sensor_id;sensor_type;location;lat;lon;timestamp;temperature;humidity
19817;DHT22;68323;49.394;8.434;2024-02-21T00:00:39;9.90;99.90
19817;DHT22;68323;49.394;8.434;2024-02-21T00:03:06;9.90;99.90
19817;DHT22;68323;49.394;8.434;2024-02-21T00:05:32;9.90;99.90
19817;DHT22;68323;49.394;8.434;2024-02-21T00:07:59;9.90;99.90
19817;DHT22;68323;49.394;8.434;2024-02-21T00:10:25;9.90;99.90
19817;DHT22;68323;49.394;8.434;2024-02-21T00:12:51;9.90;99.90
19817;DHT22;68323;49.394;8.434;2024-02-21T00:15:16;9.90;99.90
19817;DHT22;68323;49.394;8.434;2024-02-21T00:17:44;9.80;99.90
19817;DHT22;68323;49.394;8.434;2024-02-21T00:20:09;9.90;99.90
19817;DHT22;68323;49.394;8.434;2024-02-21T00:22:35;9.90;99.90
19817;DHT22;68323;49.394;8.434;2024-02-21T00:25:01;9.90;99.90
19817;DHT22;68323;49.394;8.434;2024-02-21T00:27:27;9.80;99.90
19817;DHT22;68323;49.394;8.434;2024-02-21T00:29:53;9.90;99.90
19817;DHT22;68323;49.394;8.434;2024-02-21T00:32:18;9.90;99.90
19817;DHT22;68323;49.394;8.434;2024-02-21T00:34:45;9.90;99.90
19817;DHT22;68323;49.394;8.434;2024-02-21T00:37:10;9.90;99.90
19817;DHT22;68323;49.394;8.434;2024-02-21T00:39:36;9.90;99.90
19817;DHT22;68323;49.394;8.434;2024-02-21T00:42:02;9.90;99.90
19817;DHT22;68323;49.394;8.434;2024-02-21T00:44:28;9.90;99.90
19817;DHT22;68323;49.394;8.434;2024-02-21T00:46:53;9.80;99.90
19817;DHT22;68323;49.394;8.434;2024-02-21T00:49:19;9.80;99.90
19817;DHT22;68323;49.394;8.434;2024-02-21T00:51:44;9.80;99.90
19817;DHT22;68323;49.394;8.434;2024-02-21T00:54:10;9.80;99.90
19817;DHT22;68323;49.394;8.434;2024-02-21T00:56:35;9.80;99.90
19817;DHT22;68323;49.394;8.434;2024-02-21T00:59:01;9.80;99.90
19817;DHT22;68323;49.394;8.434;2024-02-21T01:01:27;9.80;99.90
19817;DHT22;68323;49.394;8.434;2024-02-21T01:03:52;9.70;99.90
19817;DHT22;68323;49.394;8.434;2024-02-21T01:06:19;9.70;99.90
19817;DHT22;68323;49.394;8.434;2024-02-21T01:08:46;9.70;99.90
19817;DHT22;68323;49.394;8.434;2024-02-21T01:11:12;9.70;99.90
19817;DHT22;68323;49.394;8.434;2024-02-21T01:13:37;9.70;99.90
19817;DHT22;68323;49.394;8.434;2024-02-21T01:16:03;9.70;99.90
19817;DHT22;68323;49.394;8.434;2024-02-21T01:18:29;9.70;99.90
19817;DHT22;68323;49.394;8.434;2024-02-21T01:20:54;9.70;99.90
19817;DHT22;68323;49.394;8.434;2024-02-21T01:23:20;9.70;99.90
19817;DHT22;68323;49.394;8.434;2024-02-21T01:25:45;9.70;99.90
19817;DHT22;68323;49.394;8.434;2024-02-21T01:28:11;9.70;99.90
19817;DHT22;68323;49.394;8.434;2024-02-21T01:30:36;9.70;99.90
19817;DHT22;68323;49.394;8.434;2024-02-21T01:33:02;9.60;99.90
19817;DHT22;68323;49.394;8.434;2024-02-21T01:35:28;9.60;99.90
19817;DHT22;68323;49.394;8.434;2024-02-21T01:37:53;9.60;99.90
19817;DHT22;68323;49.394;8.434;2024-02-21T01:40:19;9.60;99.90
19817;DHT22;68323;49.394;8.434;2024-02-21T01:42:44;9.60;99.90
19817;DHT22;68323;49.394;8.434;2024-02-21T01:45:10;9.60;99.90
19817;DHT22;68323;49.394;8.434;2024-02-21T01:47:37;9.60;99.90
19817;DHT22;68323;49.394;8.434;2024-02-21T01:50:02;9.50;99.90
19817;DHT22;68323;49.394;8.434;2024-02-21T01:52:29;9.50;99.90
19817;DHT22;68323;49.394;8.434;2024-02-21T01:54:57;9.50;99.90
19817;DHT22;68323;49.394;8.434;2024-02-21T01:57:23;9.50;99.90
19817;DHT22;68323;49.394;8.434;2024-02-21T01:59:49;9.50;99.90
19817;DHT22;68323;49.394;8.434;2024-02-21T02:02:15;9.50;99.90
19817;DHT22;68323;49.394;8.434;2024-02-21T02:04:42;9.50;99.90
19817;DHT22;68323;49.394;8.434;2024-02-21T02:07:08;9.50;99.90
19817;DHT22;68323;49.394;8.434;2024-02-21T02:09:34;9.50;99.90
19817;DHT22;68323;49.394;8.434;2024-02-21T02:12:00;9.50;99.90
19817;DHT22;68323;49.394;8.434;2024-02-21T02:14:27;9.50;99.90
19817;DHT22;68323;49.394;8.434;2024-02-21T02:16:52;9.50;99.90
19817;DHT22;68323;49.394;8.434;2024-02-21T02:19:18;9.50;99.90
19817;DHT22;68323;49.394;8.434;2024-02-21T02:21:46;9.50;99.90
19817;DHT22;68323;49.394;8.434;2024-02-21T02:24:19;9.40;99.90
19817;DHT22;68323;49.394;8.434;2024-02-21T02:26:45;9.40;99.90
19817;DHT22;68323;49.394;8.434;2024-02-21T02:29:11;9.40;99.90
19817;DHT22;68323;49.394;8.434;2024-02-21T02:31:37;9.40;99.90
19817;DHT22;68323;49.394;8.434;2024-02-21T02:34:03;9.30;99.90
19817;DHT22;68323;49.394;8.434;2024-02-21T02:36:32;9.30;99.90
19817;DHT22;68323;49.394;8.434;2024-02-21T02:38:59;9.30;99.90
19817;DHT22;68323;49.394;8.434;2024-02-21T02:41:24;9.30;99.90
19817;DHT22;68323;49.394;8.434;2024-02-21T02:43:50;9.30;99.90
19817;DHT22;68323;49.394;8.434;2024-02-21T02:46:15;9.30;99.90
19817;DHT22;68323;49.394;8.434;2024-02-21T02:48:41;9.20;99.90
19817;DHT22;68323;49.394;8.434;2024-02-21T02:51:07;9.20;99.90
19817;DHT22;68323;49.394;8.434;2024-02-21T02:53:32;9.30;99.90
19817;DHT22;68323;49.394;8.434;2024-02-21T02:55:58;9.20;99.90
19817;DHT22;68323;49.394;8.434;2024-02-21T02:58:23;9.20;99.90
19817;DHT22;68323;49.394;8.434;2024-02-21T03:00:49;9.20;99.90
19817;DHT22;68323;49.394;8.434;2024-02-21T03:03:14;9.20;99.90
19817;DHT22;68323;49.394;8.434;2024-02-21T03:05:40;9.20;99.90
19817;DHT22;68323;49.394;8.434;2024-02-21T03:08:06;9.20;99.90
19817;DHT22;68323;49.394;8.434;2024-02-21T03:10:33;9.20;99.90
19817;DHT22;68323;49.394;8.434;2024-02-21T03:12:59;9.20;99.90
19817;DHT22;68323;49.394;8.434;2024-02-21T03:15:24;9.20;99.90
19817;DHT22;68323;49.394;8.434;2024-02-21T03:17:50;9.10;99.90
19817;DHT22;68323;49.394;8.434;2024-02-21T03:20:15;9.20;99.90
19817;DHT22;68323;49.394;8.434;2024-02-21T03:22:41;9.10;99.90
19817;DHT22;68323;49.394;8.434;2024-02-21T03:25:10;9.10;99.90
19817;DHT22;68323;49.394;8.434;2024-02-21T03:27:36;9.20;99.90
19817;DHT22;68323;49.394;8.434;2024-02-21T03:30:02;9.10;99.90
19817;DHT22;68323;49.394;8.434;2024-02-21T03:32:27;9.10;99.90
19817;DHT22;68323;49.394;8.434;2024-02-21T03:34:56;9.10;99.90
19817;DHT22;68323;49.394;8.434;2024-02-21T03:37:22;9.00;99.90
19817;DHT22;68323;49.394;8.434;2024-02-21T03:39:47;9.00;99.90
19817;DHT22;68323;49.394;8.434;2024-02-21T03:42:13;9.00;99.90
19817;DHT22;68323;49.394;8.434;2024-02-21T03:44:38;9.00;99.90
19817;DHT22;68323;49.394;8.434;2024-02-21T03:47:04;8.90;99.90
19817;DHT22;68323;49.394;8.434;2024-02-21T03:49:30;8.90;99.90
19817;DHT22;68323;49.394;8.434;2024-02-21T03:51:55;8.90;99.90
19817;DHT22;68323;49.394;8.434;2024-02-21T03:54:21;8.90;99.90
19817;DHT22;68323;49.394;8.434;2024-02-21T03:56:47;8.80;99.90
19817;DHT22;68323;49.394;8.434;2024-02-21T03:59:15;8.80;99.90
19817;DHT22;68323;49.394;8.434;2024-02-21T04:01:41;8.80;99.90
19817;DHT22;68323;49.394;8.434;2024-02-21T04:04:06;8.70;99.90
19817;DHT22;68323;49.394;8.434;2024-02-21T04:06:32;8.70;99.90
19817;DHT22;68323;49.394;8.434;2024-02-21T04:08:58;8.60;99.90
19817;DHT22;68323;49.394;8.434;2024-02-21T04:11:24;8.60;99.90
19817;DHT22;68323;49.394;8.434;2024-02-21T04:13:50;8.50;99.90
19817;DHT22;68323;49.394;8.434;2024-02-21T04:16:17;8.50;99.90
19817;DHT22;68323;49.394;8.434;2024-02-21T04:18:43;8.40;99.90
19817;DHT22;68323;49.394;8.434;2024-02-21T04:21:09;8.40;99.90
19817;DHT22;68323;49.394;8.434;2024-02-21T04:23:34;8.40;99.90
19817;DHT22;68323;49.394;8.434;2024-02-21T04:26:00;8.30;99.90
19817;DHT22;68323;49.394;8.434;2024-02-21T04:28:25;8.30;99.90
19817;DHT22;68323;49.394;8.434;2024-02-21T04:30:51;8.20;99.90
19817;DHT22;68323;49.394;8.434;2024-02-21T04:33:16;8.20;99.90
19817;DHT22;68323;49.394;8.434;2024-02-21T04:35:42;8.10;99.90
19817;DHT22;68323;49.394;8.434;2024-02-21T04:38:08;8.10;99.90
19817;DHT22;68323;49.394;8.434;2024-02-21T04:40:33;8.00;99.90
19817;DHT22;68323;49.394;8.434;2024-02-21T04:42:59;8.00;99.90
19817;DHT22;68323;49.394;8.434;2024-02-21T04:45:24;8.00;99.90
19817;DHT22;68323;49.394;8.434;2024-02-21T04:47:50;7.90;99.90
19817;DHT22;68323;49.394;8.434;2024-02-21T04:50:15;7.90;99.90
19817;DHT22;68323;49.394;8.434;2024-02-21T04:52:41;7.80;99.90
19817;DHT22;68323;49.394;8.434;2024-02-21T04:55:07;7.80;99.90
19817;DHT22;68323;49.394;8.434;2024-02-21T04:57:33;7.80;99.90
19817;DHT22;68323;49.394;8.434;2024-02-21T04:59:58;7.80;99.90
19817;DHT22;68323;49.394;8.434;2024-02-21T05:02:24;7.80;99.90
19817;DHT22;68323;49.394;8.434;2024-02-21T05:04:50;7.80;99.90
19817;DHT22;68323;49.394;8.434;2024-02-21T05:07:16;7.80;99.90
19817;DHT22;68323;49.394;8.434;2024-02-21T05:09:45;7.90;99.90
19817;DHT22;68323;49.394;8.434;2024-02-21T05:12:11;7.90;99.90
19817;DHT22;68323;49.394;8.434;2024-02-21T05:14:36;7.90;99.90
19817;DHT22;68323;49.394;8.434;2024-02-21T05:17:03;7.90;99.90
19817;DHT22;68323;49.394;8.434;2024-02-21T05:19:28;7.90;99.90
19817;DHT22;68323;49.394;8.434;2024-02-21T05:21:54;7.90;99.90
19817;DHT22;68323;49.394;8.434;2024-02-21T05:24:19;7.90;99.90
19817;DHT22;68323;49.394;8.434;2024-02-21T05:26:45;7.90;99.90
19817;DHT22;68323;49.394;8.434;2024-02-21T05:29:11;7.90;99.90
19817;DHT22;68323;49.394;8.434;2024-02-21T05:32:09;7.90;99.90
19817;DHT22;68323;49.394;8.434;2024-02-21T05:34:34;7.90;99.90
19817;DHT22;68323;49.394;8.434;2024-02-21T05:37:00;7.90;99.90
19817;DHT22;68323;49.394;8.434;2024-02-21T05:39:26;7.90;99.90
19817;DHT22;68323;49.394;8.434;2024-02-21T05:41:52;7.90;99.90
19817;DHT22;68323;49.394;8.434;2024-02-21T05:44:18;7.80;99.90
19817;DHT22;68323;49.394;8.434;2024-02-21T05:46:43;7.80;99.90
19817;DHT22;68323;49.394;8.434;2024-02-21T05:49:09;7.80;99.90
19817;DHT22;68323;49.394;8.434;2024-02-21T05:51:35;7.80;99.90
19817;DHT22;68323;49.394;8.434;2024-02-21T05:54:00;7.80;99.90
19817;DHT22;68323;49.394;8.434;2024-02-21T05:56:26;7.70;99.90
19817;DHT22;68323;49.394;8.434;2024-02-21T05:58:52;7.70;99.90
19817;DHT22;68323;49.394;8.434;2024-02-21T06:01:18;7.80;99.90
19817;DHT22;68323;49.394;8.434;2024-02-21T06:03:44;7.80;99.90
19817;DHT22;68323;49.394;8.434;2024-02-21T06:06:09;7.70;99.90
19817;DHT22;68323;49.394;8.434;2024-02-21T06:08:35;7.70;99.90
19817;DHT22;68323;49.394;8.434;2024-02-21T06:11:00;7.70;99.90
19817;DHT22;68323;49.394;8.434;2024-02-21T06:13:26;7.70;99.90
19817;DHT22;68323;49.394;8.434;2024-02-21T06:15:52;7.70;99.90
19817;DHT22;68323;49.394;8.434;2024-02-21T06:18:18;7.70;99.90
19817;DHT22;68323;49.394;8.434;2024-02-21T06:20:44;7.70;99.90
19817;DHT22;68323;49.394;8.434;2024-02-21T06:23:11;7.60;99.90
19817;DHT22;68323;49.394;8.434;2024-02-21T06:25:38;7.60;99.90
19817;DHT22;68323;49.394;8.434;2024-02-21T06:28:04;7.60;99.90
19817;DHT22;68323;49.394;8.434;2024-02-21T06:30:29;7.60;99.90
19817;DHT22;68323;49.394;8.434;2024-02-21T06:32:55;7.60;99.90
19817;DHT22;68323;49.394;8.434;2024-02-21T06:35:21;7.60;99.90
19817;DHT22;68323;49.394;8.434;2024-02-21T06:37:47;7.60;99.90
19817;DHT22;68323;49.394;8.434;2024-02-21T06:40:17;7.60;99.90
19817;DHT22;68323;49.394;8.434;2024-02-21T06:42:42;7.60;99.90
19817;DHT22;68323;49.394;8.434;2024-02-21T06:45:08;7.60;99.90
19817;DHT22;68323;49.394;8.434;2024-02-21T06:47:33;7.60;99.90
19817;DHT22;68323;49.394;8.434;2024-02-21T06:49:59;7.60;99.90
19817;DHT22;68323;49.394;8.434;2024-02-21T06:52:24;7.70;99.90
19817;DHT22;68323;49.394;8.434;2024-02-21T06:54:50;7.70;99.90
19817;DHT22;68323;49.394;8.434;2024-02-21T06:57:16;7.80;99.90
19817;DHT22;68323;49.394;8.434;2024-02-21T06:59:42;7.80;99.90
19817;DHT22;68323;49.394;8.434;2024-02-21T07:02:08;7.80;99.90
19817;DHT22;68323;49.394;8.434;2024-02-21T07:04:33;7.80;99.90
19817;DHT22;68323;49.394;8.434;2024-02-21T07:06:59;7.90;99.90
19817;DHT22;68323;49.394;8.434;2024-02-21T07:09:25;8.00;99.90
19817;DHT22;68323;49.394;8.434;2024-02-21T07:11:50;8.10;99.90
19817;DHT22;68323;49.394;8.434;2024-02-21T07:14:16;8.20;99.90
19817;DHT22;68323;49.394;8.434;2024-02-21T07:16:41;8.30;99.90
19817;DHT22;68323;49.394;8.434;2024-02-21T07:19:07;8.50;99.90
19817;DHT22;68323;49.394;8.434;2024-02-21T07:21:32;8.60;99.90
19817;DHT22;68323;49.394;8.434;2024-02-21T07:23:58;8.70;99.90
19817;DHT22;68323;49.394;8.434;2024-02-21T07:26:24;8.70;99.90
19817;DHT22;68323;49.394;8.434;2024-02-21T07:28:49;8.90;99.90
19817;DHT22;68323;49.394;8.434;2024-02-21T07:31:15;8.90;99.90
19817;DHT22;68323;49.394;8.434;2024-02-21T07:33:41;9.00;99.90
19817;DHT22;68323;49.394;8.434;2024-02-21T07:36:07;9.00;99.90
19817;DHT22;68323;49.394;8.434;2024-02-21T07:38:33;9.10;99.90
19817;DHT22;68323;49.394;8.434;2024-02-21T07:40:59;9.20;99.90
19817;DHT22;68323;49.394;8.434;2024-02-21T07:43:25;9.30;99.90
19817;DHT22;68323;49.394;8.434;2024-02-21T07:45:52;9.40;99.90
19817;DHT22;68323;49.394;8.434;2024-02-21T07:48:18;9.50;99.90
19817;DHT22;68323;49.394;8.434;2024-02-21T07:50:44;9.60;99.90
19817;DHT22;68323;49.394;8.434;2024-02-21T07:53:10;9.70;99.90
19817;DHT22;68323;49.394;8.434;2024-02-21T07:55:35;9.80;99.90
19817;DHT22;68323;49.394;8.434;2024-02-21T07:58:01;9.80;99.90
19817;DHT22;68323;49.394;8.434;2024-02-21T08:00:26;9.90;99.90
19817;DHT22;68323;49.394;8.434;2024-02-21T08:02:52;10.00;99.90
19817;DHT22;68323;49.394;8.434;2024-02-21T08:05:17;10.10;99.90
19817;DHT22;68323;49.394;8.434;2024-02-21T08:07:43;10.20;99.90
19817;DHT22;68323;49.394;8.434;2024-02-21T08:10:09;10.30;99.90
19817;DHT22;68323;49.394;8.434;2024-02-21T08:12:35;10.40;99.90
19817;DHT22;68323;49.394;8.434;2024-02-21T08:15:01;10.50;99.90
19817;DHT22;68323;49.394;8.434;2024-02-21T08:17:28;10.50;99.90
19817;DHT22;68323;49.394;8.434;2024-02-21T08:19:54;10.50;99.90
19817;DHT22;68323;49.394;8.434;2024-02-21T08:22:19;10.60;99.90
19817;DHT22;68323;49.394;8.434;2024-02-21T08:24:45;10.60;99.90
19817;DHT22;68323;49.394;8.434;2024-02-21T08:27:10;10.60;99.90
19817;DHT22;68323;49.394;8.434;2024-02-21T08:29:36;10.60;99.90
19817;DHT22;68323;49.394;8.434;2024-02-21T08:32:02;10.50;99.90
19817;DHT22;68323;49.394;8.434;2024-02-21T08:34:27;10.50;99.90
19817;DHT22;68323;49.394;8.434;2024-02-21T08:36:55;10.40;99.90
19817;DHT22;68323;49.394;8.434;2024-02-21T08:39:20;10.40;99.90
19817;DHT22;68323;49.394;8.434;2024-02-21T08:41:46;10.40;99.90
19817;DHT22;68323;49.394;8.434;2024-02-21T08:44:12;10.40;99.90
19817;DHT22;68323;49.394;8.434;2024-02-21T08:46:37;10.40;99.90
19817;DHT22;68323;49.394;8.434;2024-02-21T08:49:05;10.40;99.90
19817;DHT22;68323;49.394;8.434;2024-02-21T08:51:31;10.50;99.90
19817;DHT22;68323;49.394;8.434;2024-02-21T08:53:57;10.60;99.90
19817;DHT22;68323;49.394;8.434;2024-02-21T08:56:23;10.70;99.90
19817;DHT22;68323;49.394;8.434;2024-02-21T08:58:49;10.90;99.90
19817;DHT22;68323;49.394;8.434;2024-02-21T09:01:15;11.20;99.90
19817;DHT22;68323;49.394;8.434;2024-02-21T09:03:40;11.60;99.90
19817;DHT22;68323;49.394;8.434;2024-02-21T09:06:06;11.80;99.90
19817;DHT22;68323;49.394;8.434;2024-02-21T09:08:33;12.00;99.90
19817;DHT22;68323;49.394;8.434;2024-02-21T09:11:00;12.00;99.90
19817;DHT22;68323;49.394;8.434;2024-02-21T09:13:26;12.40;99.90
19817;DHT22;68323;49.394;8.434;2024-02-21T09:15:52;12.90;99.90
19817;DHT22;68323;49.394;8.434;2024-02-21T09:18:17;13.00;99.90
19817;DHT22;68323;49.394;8.434;2024-02-21T09:20:43;13.40;99.90
19817;DHT22;68323;49.394;8.434;2024-02-21T09:23:09;13.90;99.90
19817;DHT22;68323;49.394;8.434;2024-02-21T09:25:35;14.00;99.90
19817;DHT22;68323;49.394;8.434;2024-02-21T09:37:48;15.30;99.90
19817;DHT22;68323;49.394;8.434;2024-02-21T09:40:15;15.40;99.90
19817;DHT22;68323;49.394;8.434;2024-02-21T09:42:42;15.80;99.90
19817;DHT22;68323;49.394;8.434;2024-02-21T09:45:19;15.70;99.90
19817;DHT22;68323;49.394;8.434;2024-02-21T09:50:34;16.10;99.90
19817;DHT22;68323;49.394;8.434;2024-02-21T09:53:02;16.00;99.90
19817;DHT22;68323;49.394;8.434;2024-02-21T09:55:31;15.90;99.90
19817;DHT22;68323;49.394;8.434;2024-02-21T09:58:01;15.80;99.90
19817;DHT22;68323;49.394;8.434;2024-02-21T10:00:27;15.70;99.90
19817;DHT22;68323;49.394;8.434;2024-02-21T10:02:53;15.60;99.90
19817;DHT22;68323;49.394;8.434;2024-02-21T10:05:19;15.60;99.90
19817;DHT22;68323;49.394;8.434;2024-02-21T10:07:45;15.60;99.90
19817;DHT22;68323;49.394;8.434;2024-02-21T10:10:11;15.50;99.90
19817;DHT22;68323;49.394;8.434;2024-02-21T10:12:36;15.50;99.90
19817;DHT22;68323;49.394;8.434;2024-02-21T10:15:12;15.40;99.90
19817;DHT22;68323;49.394;8.434;2024-02-21T10:17:38;15.40;99.90
19817;DHT22;68323;49.394;8.434;2024-02-21T10:20:10;15.30;99.90
19817;DHT22;68323;49.394;8.434;2024-02-21T10:22:38;15.30;99.90
19817;DHT22;68323;49.394;8.434;2024-02-21T10:27:33;15.10;99.90
19817;DHT22;68323;49.394;8.434;2024-02-21T10:29:59;15.10;99.90
19817;DHT22;68323;49.394;8.434;2024-02-21T10:32:25;15.00;99.90
19817;DHT22;68323;49.394;8.434;2024-02-21T10:35:01;14.90;99.90
19817;DHT22;68323;49.394;8.434;2024-02-21T10:37:28;14.80;99.90
19817;DHT22;68323;49.394;8.434;2024-02-21T10:39:54;14.80;99.90
19817;DHT22;68323;49.394;8.434;2024-02-21T10:42:21;14.80;99.90
19817;DHT22;68323;49.394;8.434;2024-02-21T10:44:50;14.80;99.90
19817;DHT22;68323;49.394;8.434;2024-02-21T10:47:17;14.80;99.90
19817;DHT22;68323;49.394;8.434;2024-02-21T10:49:50;14.70;99.90
19817;DHT22;68323;49.394;8.434;2024-02-21T10:55:25;14.50;99.90
19817;DHT22;68323;49.394;8.434;2024-02-21T10:57:52;14.50;99.90
19817;DHT22;68323;49.394;8.434;2024-02-21T11:00:18;14.50;99.90
19817;DHT22;68323;49.394;8.434;2024-02-21T11:02:45;14.40;99.90
19817;DHT22;68323;49.394;8.434;2024-02-21T11:05:12;14.30;99.90
19817;DHT22;68323;49.394;8.434;2024-02-21T11:07:39;14.30;99.90
19817;DHT22;68323;49.394;8.434;2024-02-21T11:10:05;14.30;99.90
19817;DHT22;68323;49.394;8.434;2024-02-21T11:12:33;14.30;99.90
19817;DHT22;68323;49.394;8.434;2024-02-21T11:15:08;14.30;99.90
19817;DHT22;68323;49.394;8.434;2024-02-21T11:17:33;14.20;99.90
19817;DHT22;68323;49.394;8.434;2024-02-21T11:20:11;14.10;99.90
19817;DHT22;68323;49.394;8.434;2024-02-21T11:22:44;14.10;99.90
19817;DHT22;68323;49.394;8.434;2024-02-21T11:25:09;14.10;99.90
19817;DHT22;68323;49.394;8.434;2024-02-21T11:27:38;14.00;99.90
19817;DHT22;68323;49.394;8.434;2024-02-21T11:30:05;14.00;99.90
19817;DHT22;68323;49.394;8.434;2024-02-21T11:32:31;14.00;99.90
19817;DHT22;68323;49.394;8.434;2024-02-21T11:35:03;14.00;99.90
19817;DHT22;68323;49.394;8.434;2024-02-21T11:37:34;14.20;99.90
19817;DHT22;68323;49.394;8.434;2024-02-21T11:40:03;14.30;99.90
19817;DHT22;68323;49.394;8.434;2024-02-21T11:42:29;14.30;99.90
19817;DHT22;68323;49.394;8.434;2024-02-21T11:44:59;14.30;99.90
19817;DHT22;68323;49.394;8.434;2024-02-21T11:47:25;14.30;99.90
19817;DHT22;68323;49.394;8.434;2024-02-21T11:49:51;14.30;99.90
19817;DHT22;68323;49.394;8.434;2024-02-21T11:52:23;14.40;99.90
19817;DHT22;68323;49.394;8.434;2024-02-21T11:54:51;14.30;99.90
19817;DHT22;68323;49.394;8.434;2024-02-21T11:57:17;14.30;99.90
19817;DHT22;68323;49.394;8.434;2024-02-21T11:59:44;14.20;99.90
19817;DHT22;68323;49.394;8.434;2024-02-21T12:02:11;14.30;99.90
19817;DHT22;68323;49.394;8.434;2024-02-21T12:04:37;14.30;99.90
19817;DHT22;68323;49.394;8.434;2024-02-21T12:07:03;14.30;99.90
19817;DHT22;68323;49.394;8.434;2024-02-21T12:09:29;14.40;99.90
19817;DHT22;68323;49.394;8.434;2024-02-21T12:12:02;14.40;99.90
19817;DHT22;68323;49.394;8.434;2024-02-21T12:14:29;14.40;99.90
19817;DHT22;68323;49.394;8.434;2024-02-21T12:16:58;14.40;99.90
19817;DHT22;68323;49.394;8.434;2024-02-21T12:19:24;14.40;99.90
19817;DHT22;68323;49.394;8.434;2024-02-21T12:21:50;14.40;99.90
19817;DHT22;68323;49.394;8.434;2024-02-21T12:24:23;14.40;99.90
19817;DHT22;68323;49.394;8.434;2024-02-21T12:26:49;14.40;99.90
19817;DHT22;68323;49.394;8.434;2024-02-21T12:29:15;14.50;99.90
19817;DHT22;68323;49.394;8.434;2024-02-21T12:31:41;14.50;99.90
19817;DHT22;68323;49.394;8.434;2024-02-21T12:34:06;14.50;99.90
19817;DHT22;68323;49.394;8.434;2024-02-21T12:36:32;14.50;99.90
19817;DHT22;68323;49.394;8.434;2024-02-21T12:38:59;14.50;99.90
19817;DHT22;68323;49.394;8.434;2024-02-21T12:41:25;14.50;99.90
19817;DHT22;68323;49.394;8.434;2024-02-21T12:43:52;14.50;99.90
19817;DHT22;68323;49.394;8.434;2024-02-21T12:46:18;14.40;99.90
19817;DHT22;68323;49.394;8.434;2024-02-21T12:48:43;14.40;99.90
19817;DHT22;68323;49.394;8.434;2024-02-21T12:51:09;14.40;99.90
19817;DHT22;68323;49.394;8.434;2024-02-21T12:53:35;14.40;99.90
19817;DHT22;68323;49.394;8.434;2024-02-21T12:56:00;14.40;99.90
19817;DHT22;68323;49.394;8.434;2024-02-21T12:58:26;14.40;99.90
19817;DHT22;68323;49.394;8.434;2024-02-21T13:00:52;14.40;99.90
19817;DHT22;68323;49.394;8.434;2024-02-21T13:03:18;14.40;99.90
19817;DHT22;68323;49.394;8.434;2024-02-21T13:05:44;14.40;99.90
19817;DHT22;68323;49.394;8.434;2024-02-21T13:08:09;14.40;99.90
19817;DHT22;68323;49.394;8.434;2024-02-21T13:10:35;14.40;99.90
19817;DHT22;68323;49.394;8.434;2024-02-21T13:13:01;14.40;99.90
19817;DHT22;68323;49.394;8.434;2024-02-21T13:15:27;14.40;99.90
19817;DHT22;68323;49.394;8.434;2024-02-21T13:17:54;14.40;99.90
19817;DHT22;68323;49.394;8.434;2024-02-21T13:20:20;14.40;99.90
19817;DHT22;68323;49.394;8.434;2024-02-21T13:22:46;14.40;99.90
19817;DHT22;68323;49.394;8.434;2024-02-21T13:25:11;14.30;99.90
19817;DHT22;68323;49.394;8.434;2024-02-21T13:27:40;14.30;99.90
19817;DHT22;68323;49.394;8.434;2024-02-21T13:30:06;14.30;99.90
19817;DHT22;68323;49.394;8.434;2024-02-21T13:32:34;14.30;99.90
19817;DHT22;68323;49.394;8.434;2024-02-21T13:34:59;14.30;99.90
19817;DHT22;68323;49.394;8.434;2024-02-21T13:37:26;14.40;99.90
19817;DHT22;68323;49.394;8.434;2024-02-21T13:39:53;14.40;99.90
19817;DHT22;68323;49.394;8.434;2024-02-21T13:42:19;14.30;99.90
19817;DHT22;68323;49.394;8.434;2024-02-21T13:44:45;14.30;99.90
19817;DHT22;68323;49.394;8.434;2024-02-21T13:47:14;14.30;99.90
19817;DHT22;68323;49.394;8.434;2024-02-21T13:49:39;14.30;99.90
19817;DHT22;68323;49.394;8.434;2024-02-21T13:52:05;14.20;99.90
19817;DHT22;68323;49.394;8.434;2024-02-21T13:54:30;14.20;99.90
19817;DHT22;68323;49.394;8.434;2024-02-21T13:56:56;14.20;99.90
19817;DHT22;68323;49.394;8.434;2024-02-21T13:59:21;14.10;99.90
19817;DHT22;68323;49.394;8.434;2024-02-21T14:01:47;14.10;99.90
19817;DHT22;68323;49.394;8.434;2024-02-21T14:04:13;14.10;99.90
19817;DHT22;68323;49.394;8.434;2024-02-21T14:06:38;14.00;99.90
19817;DHT22;68323;49.394;8.434;2024-02-21T14:09:09;14.00;99.90
19817;DHT22;68323;49.394;8.434;2024-02-21T14:11:35;14.00;99.90
19817;DHT22;68323;49.394;8.434;2024-02-21T14:14:01;14.10;99.90
19817;DHT22;68323;49.394;8.434;2024-02-21T14:16:26;14.00;99.90
19817;DHT22;68323;49.394;8.434;2024-02-21T14:18:52;14.00;99.90
19817;DHT22;68323;49.394;8.434;2024-02-21T14:21:19;14.10;99.90
19817;DHT22;68323;49.394;8.434;2024-02-21T14:23:45;14.00;99.90
19817;DHT22;68323;49.394;8.434;2024-02-21T14:26:11;14.00;99.90
19817;DHT22;68323;49.394;8.434;2024-02-21T14:28:37;14.00;99.90
19817;DHT22;68323;49.394;8.434;2024-02-21T14:31:03;14.00;99.90
19817;DHT22;68323;49.394;8.434;2024-02-21T14:33:31;13.90;99.90
19817;DHT22;68323;49.394;8.434;2024-02-21T14:35:57;13.90;99.90
19817;DHT22;68323;49.394;8.434;2024-02-21T14:38:22;13.90;99.90
19817;DHT22;68323;49.394;8.434;2024-02-21T14:40:48;13.80;99.90
19817;DHT22;68323;49.394;8.434;2024-02-21T14:43:14;13.80;99.90
19817;DHT22;68323;49.394;8.434;2024-02-21T14:45:39;13.80;99.90
19817;DHT22;68323;49.394;8.434;2024-02-21T14:48:06;13.80;99.90
19817;DHT22;68323;49.394;8.434;2024-02-21T14:50:32;13.80;99.90
19817;DHT22;68323;49.394;8.434;2024-02-21T14:52:57;13.80;99.70
19817;DHT22;68323;49.394;8.434;2024-02-21T14:55:23;13.80;99.50
19817;DHT22;68323;49.394;8.434;2024-02-21T14:57:49;13.80;99.40
19817;DHT22;68323;49.394;8.434;2024-02-21T15:00:15;13.80;99.60
19817;DHT22;68323;49.394;8.434;2024-02-21T15:02:41;13.80;99.90
19817;DHT22;68323;49.394;8.434;2024-02-21T15:05:07;13.80;99.80
19817;DHT22;68323;49.394;8.434;2024-02-21T15:07:32;13.80;99.40
19817;DHT22;68323;49.394;8.434;2024-02-21T15:09:58;13.80;99.30
19817;DHT22;68323;49.394;8.434;2024-02-21T15:12:24;13.80;99.40
19817;DHT22;68323;49.394;8.434;2024-02-21T15:14:50;13.70;99.50
19817;DHT22;68323;49.394;8.434;2024-02-21T15:17:17;13.70;99.80
19817;DHT22;68323;49.394;8.434;2024-02-21T15:19:43;13.60;99.90
19817;DHT22;68323;49.394;8.434;2024-02-21T15:22:10;13.60;99.90
19817;DHT22;68323;49.394;8.434;2024-02-21T15:24:39;13.60;99.90
19817;DHT22;68323;49.394;8.434;2024-02-21T15:27:05;13.60;99.90
19817;DHT22;68323;49.394;8.434;2024-02-21T15:29:31;13.50;99.90
19817;DHT22;68323;49.394;8.434;2024-02-21T15:31:57;13.50;99.90
19817;DHT22;68323;49.394;8.434;2024-02-21T15:34:23;13.40;99.90
19817;DHT22;68323;49.394;8.434;2024-02-21T15:36:48;13.30;99.90
19817;DHT22;68323;49.394;8.434;2024-02-21T15:39:14;13.30;99.90
19817;DHT22;68323;49.394;8.434;2024-02-21T15:41:40;13.30;99.90
19817;DHT22;68323;49.394;8.434;2024-02-21T15:44:05;13.30;99.90
19817;DHT22;68323;49.394;8.434;2024-02-21T15:46:31;13.30;99.90
19817;DHT22;68323;49.394;8.434;2024-02-21T15:48:59;13.30;99.90